sensor_id;sensor_type;location;lat;lon;timestamp;P1;durP1;ratioP1;P2;durP2;ratioP2
35462;SDS011;21578;47.892;9.970;2023-08-21T00:01:28;8.93;;;7.17;;
35462;SDS011;21578;47.892;9.970;2023-08-21T00:06:15;8.80;;;7.83;;
35462;SDS011;21578;47.892;9.970;2023-08-21T00:11:01;10.03;;;7.37;;
35462;SDS011;21578;47.892;9.970;2023-08-21T00:15:48;12.83;;;8.33;;
35462;SDS011;21578;47.892;9.970;2023-08-21T00:20:37;9.83;;;8.00;;
35462;SDS011;21578;47.892;9.970;2023-08-21T00:25:24;9.37;;;7.27;;
35462;SDS011;21578;47.892;9.970;2023-08-21T00:30:11;13.00;;;7.67;;
35462;SDS011;21578;47.892;9.970;2023-08-21T00:34:59;7.70;;;6.27;;
35462;SDS011;21578;47.892;9.970;2023-08-21T00:39:48;7.90;;;5.90;;
35462;SDS011;21578;47.892;9.970;2023-08-21T00:44:35;6.10;;;5.50;;
35462;SDS011;21578;47.892;9.970;2023-08-21T00:49:22;8.57;;;5.50;;
35462;SDS011;21578;47.892;9.970;2023-08-21T00:54:09;6.93;;;6.30;;
35462;SDS011;21578;47.892;9.970;2023-08-21T00:58:57;6.73;;;6.03;;
35462;SDS011;21578;47.892;9.970;2023-08-21T01:03:44;7.47;;;5.23;;
35462;SDS011;21578;47.892;9.970;2023-08-21T01:08:34;9.30;;;5.93;;
35462;SDS011;21578;47.892;9.970;2023-08-21T01:13:32;6.80;;;6.10;;
35462;SDS011;21578;47.892;9.970;2023-08-21T01:18:27;8.53;;;5.73;;
35462;SDS011;21578;47.892;9.970;2023-08-21T01:23:30;6.67;;;6.07;;
35462;SDS011;21578;47.892;9.970;2023-08-21T01:28:18;7.77;;;5.90;;
35462;SDS011;21578;47.892;9.970;2023-08-21T01:33:05;9.80;;;5.80;;
35462;SDS011;21578;47.892;9.970;2023-08-21T01:37:56;6.77;;;6.00;;
35462;SDS011;21578;47.892;9.970;2023-08-21T01:42:45;7.23;;;5.80;;
35462;SDS011;21578;47.892;9.970;2023-08-21T01:47:32;8.90;;;5.93;;
35462;SDS011;21578;47.892;9.970;2023-08-21T01:52:19;6.47;;;5.87;;
35462;SDS011;21578;47.892;9.970;2023-08-21T01:57:06;6.53;;;5.93;;
35462;SDS011;21578;47.892;9.970;2023-08-21T02:01:54;7.07;;;6.10;;
35462;SDS011;21578;47.892;9.970;2023-08-21T02:06:41;7.80;;;6.33;;
35462;SDS011;21578;47.892;9.970;2023-08-21T02:11:29;8.50;;;6.60;;
35462;SDS011;21578;47.892;9.970;2023-08-21T02:16:16;9.30;;;8.40;;
35462;SDS011;21578;47.892;9.970;2023-08-21T02:21:04;7.77;;;7.07;;
35462;SDS011;21578;47.892;9.970;2023-08-21T02:25:51;8.33;;;6.47;;
35462;SDS011;21578;47.892;9.970;2023-08-21T02:30:39;8.40;;;6.20;;
35462;SDS011;21578;47.892;9.970;2023-08-21T02:35:27;7.50;;;6.80;;
35462;SDS011;21578;47.892;9.970;2023-08-21T02:40:15;9.10;;;6.77;;
35462;SDS011;21578;47.892;9.970;2023-08-21T02:45:02;6.73;;;6.13;;
35462;SDS011;21578;47.892;9.970;2023-08-21T02:49:53;8.50;;;7.50;;
35462;SDS011;21578;47.892;9.970;2023-08-21T02:54:40;7.73;;;6.87;;
35462;SDS011;21578;47.892;9.970;2023-08-21T02:59:28;9.33;;;6.93;;
35462;SDS011;21578;47.892;9.970;2023-08-21T03:04:15;7.80;;;7.00;;
35462;SDS011;21578;47.892;9.970;2023-08-21T03:09:02;7.93;;;6.87;;
35462;SDS011;21578;47.892;9.970;2023-08-21T03:13:49;8.17;;;6.90;;
35462;SDS011;21578;47.892;9.970;2023-08-21T03:18:45;7.50;;;6.83;;
35462;SDS011;21578;47.892;9.970;2023-08-21T03:23:40;9.50;;;7.30;;
35462;SDS011;21578;47.892;9.970;2023-08-21T03:28:27;8.70;;;7.03;;
35462;SDS011;21578;47.892;9.970;2023-08-21T03:33:14;14.30;;;7.70;;
35462;SDS011;21578;47.892;9.970;2023-08-21T03:38:02;8.00;;;7.20;;
35462;SDS011;21578;47.892;9.970;2023-08-21T03:42:49;9.30;;;8.30;;
35462;SDS011;21578;47.892;9.970;2023-08-21T03:47:36;10.20;;;8.10;;
35462;SDS011;21578;47.892;9.970;2023-08-21T03:52:23;8.20;;;7.50;;
35462;SDS011;21578;47.892;9.970;2023-08-21T03:57:11;9.70;;;7.40;;
35462;SDS011;21578;47.892;9.970;2023-08-21T04:01:58;10.10;;;7.33;;
35462;SDS011;21578;47.892;9.970;2023-08-21T04:06:46;9.27;;;6.80;;
35462;SDS011;21578;47.892;9.970;2023-08-21T04:11:33;11.20;;;7.57;;
35462;SDS011;21578;47.892;9.970;2023-08-21T04:16:22;8.30;;;7.50;;
35462;SDS011;21578;47.892;9.970;2023-08-21T04:21:09;10.13;;;8.17;;
35462;SDS011;21578;47.892;9.970;2023-08-21T04:25:59;9.77;;;7.70;;
35462;SDS011;21578;47.892;9.970;2023-08-21T04:30:47;8.97;;;7.50;;
35462;SDS011;21578;47.892;9.970;2023-08-21T04:35:37;9.30;;;8.23;;
35462;SDS011;21578;47.892;9.970;2023-08-21T04:40:24;8.77;;;7.87;;
35462;SDS011;21578;47.892;9.970;2023-08-21T04:45:11;9.20;;;7.33;;
35462;SDS011;21578;47.892;9.970;2023-08-21T04:49:58;10.20;;;7.20;;
35462;SDS011;21578;47.892;9.970;2023-08-21T04:54:47;12.57;;;9.23;;
35462;SDS011;21578;47.892;9.970;2023-08-21T04:59:34;8.60;;;7.63;;
35462;SDS011;21578;47.892;9.970;2023-08-21T05:04:21;7.80;;;6.20;;
35462;SDS011;21578;47.892;9.970;2023-08-21T05:09:08;7.43;;;6.73;;
35462;SDS011;21578;47.892;9.970;2023-08-21T05:13:56;9.30;;;7.27;;
35462;SDS011;21578;47.892;9.970;2023-08-21T05:18:43;8.67;;;6.90;;
35462;SDS011;21578;47.892;9.970;2023-08-21T05:23:30;8.97;;;6.80;;
35462;SDS011;21578;47.892;9.970;2023-08-21T05:28:17;8.30;;;6.47;;
35462;SDS011;21578;47.892;9.970;2023-08-21T05:33:05;8.10;;;7.30;;
35462;SDS011;21578;47.892;9.970;2023-08-21T05:37:52;8.77;;;6.87;;
35462;SDS011;21578;47.892;9.970;2023-08-21T05:42:39;16.03;;;13.60;;
35462;SDS011;21578;47.892;9.970;2023-08-21T05:47:26;10.80;;;7.83;;
35462;SDS011;21578;47.892;9.970;2023-08-21T05:52:14;8.00;;;6.30;;
35462;SDS011;21578;47.892;9.970;2023-08-21T05:57:01;7.83;;;6.67;;
35462;SDS011;21578;47.892;9.970;2023-08-21T06:01:48;9.67;;;7.67;;
35462;SDS011;21578;47.892;9.970;2023-08-21T06:06:35;10.20;;;8.03;;
35462;SDS011;21578;47.892;9.970;2023-08-21T06:11:24;8.63;;;7.20;;
35462;SDS011;21578;47.892;9.970;2023-08-21T06:16:10;9.17;;;8.17;;
35462;SDS011;21578;47.892;9.970;2023-08-21T06:20:57;8.63;;;7.77;;
35462;SDS011;21578;47.892;9.970;2023-08-21T06:25:44;9.80;;;8.70;;
35462;SDS011;21578;47.892;9.970;2023-08-21T06:30:34;11.17;;;8.47;;
35462;SDS011;21578;47.892;9.970;2023-08-21T06:35:21;8.93;;;8.07;;
35462;SDS011;21578;47.892;9.970;2023-08-21T06:40:09;8.63;;;7.83;;
35462;SDS011;21578;47.892;9.970;2023-08-21T06:44:56;8.80;;;7.93;;
35462;SDS011;21578;47.892;9.970;2023-08-21T06:49:44;8.13;;;7.43;;
35462;SDS011;21578;47.892;9.970;2023-08-21T06:54:31;9.27;;;8.00;;
35462;SDS011;21578;47.892;9.970;2023-08-21T06:59:18;8.53;;;7.43;;
35462;SDS011;21578;47.892;9.970;2023-08-21T07:04:05;12.23;;;8.10;;
35462;SDS011;21578;47.892;9.970;2023-08-21T07:08:53;8.13;;;7.43;;
35462;SDS011;21578;47.892;9.970;2023-08-21T07:13:40;8.80;;;7.47;;
35462;SDS011;21578;47.892;9.970;2023-08-21T07:18:27;9.03;;;7.57;;
35462;SDS011;21578;47.892;9.970;2023-08-21T07:23:14;9.07;;;8.17;;
35462;SDS011;21578;47.892;9.970;2023-08-21T07:28:03;12.43;;;8.40;;
35462;SDS011;21578;47.892;9.970;2023-08-21T07:32:50;11.70;;;8.03;;
35462;SDS011;21578;47.892;9.970;2023-08-21T07:37:38;9.70;;;8.40;;
35462;SDS011;21578;47.892;9.970;2023-08-21T07:42:26;9.40;;;7.20;;
35462;SDS011;21578;47.892;9.970;2023-08-21T07:47:15;8.80;;;7.77;;
35462;SDS011;21578;47.892;9.970;2023-08-21T07:52:02;11.60;;;8.00;;
35462;SDS011;21578;47.892;9.970;2023-08-21T07:56:49;9.73;;;8.17;;
35462;SDS011;21578;47.892;9.970;2023-08-21T08:01:36;10.67;;;8.27;;
35462;SDS011;21578;47.892;9.970;2023-08-21T08:06:26;9.60;;;8.70;;
35462;SDS011;21578;47.892;9.970;2023-08-21T08:11:13;12.60;;;8.97;;
35462;SDS011;21578;47.892;9.970;2023-08-21T08:16:00;10.43;;;8.80;;
35462;SDS011;21578;47.892;9.970;2023-08-21T08:20:47;14.43;;;9.03;;
35462;SDS011;21578;47.892;9.970;2023-08-21T08:25:35;9.53;;;8.30;;
35462;SDS011;21578;47.892;9.970;2023-08-21T08:30:22;12.10;;;8.43;;
35462;SDS011;21578;47.892;9.970;2023-08-21T08:35:09;10.97;;;8.50;;
35462;SDS011;21578;47.892;9.970;2023-08-21T08:39:56;13.37;;;9.70;;
35462;SDS011;21578;47.892;9.970;2023-08-21T08:44:44;11.50;;;9.10;;
35462;SDS011;21578;47.892;9.970;2023-08-21T08:49:33;11.10;;;8.63;;
35462;SDS011;21578;47.892;9.970;2023-08-21T08:54:20;9.67;;;8.87;;
35462;SDS011;21578;47.892;9.970;2023-08-21T08:59:08;10.53;;;9.50;;
35462;SDS011;21578;47.892;9.970;2023-08-21T09:03:56;11.77;;;9.13;;
35462;SDS011;21578;47.892;9.970;2023-08-21T09:08:52;12.00;;;9.13;;
35462;SDS011;21578;47.892;9.970;2023-08-21T09:13:39;12.27;;;9.40;;
35462;SDS011;21578;47.892;9.970;2023-08-21T09:18:26;12.20;;;9.87;;
35462;SDS011;21578;47.892;9.970;2023-08-21T09:23:15;9.80;;;8.80;;
35462;SDS011;21578;47.892;9.970;2023-08-21T09:28:04;10.80;;;9.70;;
35462;SDS011;21578;47.892;9.970;2023-08-21T09:32:52;10.40;;;9.50;;
35462;SDS011;21578;47.892;9.970;2023-08-21T09:37:41;13.73;;;9.70;;
35462;SDS011;21578;47.892;9.970;2023-08-21T09:42:33;11.43;;;8.53;;
35462;SDS011;21578;47.892;9.970;2023-08-21T09:47:20;13.13;;;9.13;;
35462;SDS011;21578;47.892;9.970;2023-08-21T09:52:10;12.23;;;9.53;;
35462;SDS011;21578;47.892;9.970;2023-08-21T09:56:57;11.60;;;8.60;;
35462;SDS011;21578;47.892;9.970;2023-08-21T10:01:49;8.45;;;7.63;;
35462;SDS011;21578;47.892;9.970;2023-08-21T10:06:37;9.57;;;7.25;;
35462;SDS011;21578;47.892;9.970;2023-08-21T10:11:25;8.68;;;7.25;;
35462;SDS011;21578;47.892;9.970;2023-08-21T10:16:12;10.55;;;6.50;;
35462;SDS011;21578;47.892;9.970;2023-08-21T10:21:11;9.10;;;6.53;;
35462;SDS011;21578;47.892;9.970;2023-08-21T10:26:00;8.45;;;7.03;;
35462;SDS011;21578;47.892;9.970;2023-08-21T10:30:51;9.98;;;7.32;;
35462;SDS011;21578;47.892;9.970;2023-08-21T10:35:38;8.80;;;6.53;;
35462;SDS011;21578;47.892;9.970;2023-08-21T10:40:26;10.68;;;7.28;;
35462;SDS011;21578;47.892;9.970;2023-08-21T10:45:13;7.30;;;5.63;;
35462;SDS011;21578;47.892;9.970;2023-08-21T10:50:01;7.72;;;6.15;;
35462;SDS011;21578;47.892;9.970;2023-08-21T10:54:50;6.28;;;5.78;;
35462;SDS011;21578;47.892;9.970;2023-08-21T10:59:39;7.07;;;6.30;;
35462;SDS011;21578;47.892;9.970;2023-08-21T11:04:41;7.55;;;6.60;;
35462;SDS011;21578;47.892;9.970;2023-08-21T11:09:29;7.97;;;7.13;;
35462;SDS011;21578;47.892;9.970;2023-08-21T11:14:16;11.73;;;7.40;;
35462;SDS011;21578;47.892;9.970;2023-08-21T11:19:04;7.72;;;6.97;;
35462;SDS011;21578;47.892;9.970;2023-08-21T11:23:51;8.23;;;7.50;;
35462;SDS011;21578;47.892;9.970;2023-08-21T11:28:38;13.77;;;7.97;;
35462;SDS011;21578;47.892;9.970;2023-08-21T11:33:25;6.97;;;6.28;;
35462;SDS011;21578;47.892;9.970;2023-08-21T11:38:16;8.50;;;6.68;;
35462;SDS011;21578;47.892;9.970;2023-08-21T11:43:04;8.18;;;7.30;;
35462;SDS011;21578;47.892;9.970;2023-08-21T11:47:58;14.90;;;7.65;;
35462;SDS011;21578;47.892;9.970;2023-08-21T11:52:45;7.78;;;5.88;;
35462;SDS011;21578;47.892;9.970;2023-08-21T11:57:34;7.20;;;5.93;;
35462;SDS011;21578;47.892;9.970;2023-08-21T12:02:22;8.30;;;6.13;;
35462;SDS011;21578;47.892;9.970;2023-08-21T12:07:10;9.45;;;5.45;;
35462;SDS011;21578;47.892;9.970;2023-08-21T12:11:58;6.32;;;5.68;;
35462;SDS011;21578;47.892;9.970;2023-08-21T12:16:47;7.55;;;5.70;;
35462;SDS011;21578;47.892;9.970;2023-08-21T12:21:34;8.25;;;5.80;;
35462;SDS011;21578;47.892;9.970;2023-08-21T12:26:22;8.60;;;5.53;;
35462;SDS011;21578;47.892;9.970;2023-08-21T12:31:09;5.78;;;5.00;;
35462;SDS011;21578;47.892;9.970;2023-08-21T12:35:58;5.97;;;4.55;;
35462;SDS011;21578;47.892;9.970;2023-08-21T12:40:45;5.53;;;4.60;;
35462;SDS011;21578;47.892;9.970;2023-08-21T12:45:32;4.97;;;4.57;;
35462;SDS011;21578;47.892;9.970;2023-08-21T12:50:19;5.53;;;4.63;;
35462;SDS011;21578;47.892;9.970;2023-08-21T12:55:08;6.35;;;4.57;;
35462;SDS011;21578;47.892;9.970;2023-08-21T12:59:55;4.63;;;4.22;;
35462;SDS011;21578;47.892;9.970;2023-08-21T13:04:42;5.20;;;4.38;;
35462;SDS011;21578;47.892;9.970;2023-08-21T13:09:29;4.97;;;4.45;;
35462;SDS011;21578;47.892;9.970;2023-08-21T13:14:17;10.90;;;4.70;;
35462;SDS011;21578;47.892;9.970;2023-08-21T13:19:04;8.48;;;4.57;;
35462;SDS011;21578;47.892;9.970;2023-08-21T13:23:51;5.47;;;4.57;;
35462;SDS011;21578;47.892;9.970;2023-08-21T13:28:39;6.97;;;4.88;;
35462;SDS011;21578;47.892;9.970;2023-08-21T13:33:27;5.05;;;4.07;;
35462;SDS011;21578;47.892;9.970;2023-08-21T13:38:18;5.15;;;4.53;;
35462;SDS011;21578;47.892;9.970;2023-08-21T13:43:05;6.18;;;4.80;;
35462;SDS011;21578;47.892;9.970;2023-08-21T13:47:52;5.40;;;4.32;;
35462;SDS011;21578;47.892;9.970;2023-08-21T13:52:40;7.78;;;4.65;;
35462;SDS011;21578;47.892;9.970;2023-08-21T13:57:28;8.60;;;4.90;;
35462;SDS011;21578;47.892;9.970;2023-08-21T14:02:15;4.72;;;4.00;;
35462;SDS011;21578;47.892;9.970;2023-08-21T14:07:03;9.23;;;4.60;;
35462;SDS011;21578;47.892;9.970;2023-08-21T14:11:51;9.30;;;4.70;;
35462;SDS011;21578;47.892;9.970;2023-08-21T14:16:38;7.95;;;4.00;;
35462;SDS011;21578;47.892;9.970;2023-08-21T14:21:25;5.70;;;4.50;;
35462;SDS011;21578;47.892;9.970;2023-08-21T14:26:12;8.63;;;4.30;;
35462;SDS011;21578;47.892;9.970;2023-08-21T14:31:00;8.05;;;4.53;;
35462;SDS011;21578;47.892;9.970;2023-08-21T14:35:47;4.80;;;4.07;;
35462;SDS011;21578;47.892;9.970;2023-08-21T14:40:36;6.70;;;4.07;;
35462;SDS011;21578;47.892;9.970;2023-08-21T14:45:23;5.35;;;4.20;;
35462;SDS011;21578;47.892;9.970;2023-08-21T14:50:11;7.70;;;3.67;;
35462;SDS011;21578;47.892;9.970;2023-08-21T14:54:58;8.05;;;4.00;;
35462;SDS011;21578;47.892;9.970;2023-08-21T14:59:45;5.68;;;4.00;;
35462;SDS011;21578;47.892;9.970;2023-08-21T15:04:32;5.90;;;3.42;;
35462;SDS011;21578;47.892;9.970;2023-08-21T15:09:20;5.05;;;3.65;;
35462;SDS011;21578;47.892;9.970;2023-08-21T15:14:09;7.53;;;4.68;;
35462;SDS011;21578;47.892;9.970;2023-08-21T15:18:57;4.57;;;3.83;;
35462;SDS011;21578;47.892;9.970;2023-08-21T15:23:44;7.82;;;4.00;;
35462;SDS011;21578;47.892;9.970;2023-08-21T15:28:32;8.32;;;4.05;;
35462;SDS011;21578;47.892;9.970;2023-08-21T15:33:19;7.50;;;4.20;;
35462;SDS011;21578;47.892;9.970;2023-08-21T15:38:06;4.40;;;4.00;;
35462;SDS011;21578;47.892;9.970;2023-08-21T15:42:53;6.35;;;4.20;;
35462;SDS011;21578;47.892;9.970;2023-08-21T15:47:41;5.97;;;4.43;;
35462;SDS011;21578;47.892;9.970;2023-08-21T15:52:28;5.63;;;4.00;;
35462;SDS011;21578;47.892;9.970;2023-08-21T15:57:15;7.70;;;4.60;;
35462;SDS011;21578;47.892;9.970;2023-08-21T16:02:02;5.75;;;4.22;;
35462;SDS011;21578;47.892;9.970;2023-08-21T16:06:51;9.77;;;4.20;;
35462;SDS011;21578;47.892;9.970;2023-08-21T16:11:37;5.50;;;4.70;;
35462;SDS011;21578;47.892;9.970;2023-08-21T16:16:24;4.60;;;4.20;;
35462;SDS011;21578;47.892;9.970;2023-08-21T16:21:11;7.47;;;3.92;;
35462;SDS011;21578;47.892;9.970;2023-08-21T16:26:00;6.55;;;4.53;;
35462;SDS011;21578;47.892;9.970;2023-08-21T16:30:47;5.85;;;3.72;;
35462;SDS011;21578;47.892;9.970;2023-08-21T16:35:34;5.82;;;4.10;;
35462;SDS011;21578;47.892;9.970;2023-08-21T16:40:20;5.78;;;4.00;;
35462;SDS011;21578;47.892;9.970;2023-08-21T16:45:10;4.32;;;3.92;;
35462;SDS011;21578;47.892;9.970;2023-08-21T16:49:59;6.32;;;4.40;;
35462;SDS011;21578;47.892;9.970;2023-08-21T16:54:46;5.47;;;3.50;;
35462;SDS011;21578;47.892;9.970;2023-08-21T16:59:33;7.22;;;4.60;;
35462;SDS011;21578;47.892;9.970;2023-08-21T17:04:21;8.82;;;4.65;;
35462;SDS011;21578;47.892;9.970;2023-08-21T17:09:08;5.43;;;4.22;;
35462;SDS011;21578;47.892;9.970;2023-08-21T17:13:57;4.68;;;4.18;;
35462;SDS011;21578;47.892;9.970;2023-08-21T17:18:44;8.10;;;4.13;;
35462;SDS011;21578;47.892;9.970;2023-08-21T17:23:33;5.10;;;4.25;;
35462;SDS011;21578;47.892;9.970;2023-08-21T17:28:20;6.72;;;4.30;;
35462;SDS011;21578;47.892;9.970;2023-08-21T17:33:07;5.45;;;4.18;;
35462;SDS011;21578;47.892;9.970;2023-08-21T17:37:54;7.07;;;4.53;;
35462;SDS011;21578;47.892;9.970;2023-08-21T17:42:43;5.35;;;4.22;;
35462;SDS011;21578;47.892;9.970;2023-08-21T17:47:30;7.55;;;4.05;;
35462;SDS011;21578;47.892;9.970;2023-08-21T17:52:17;6.47;;;4.97;;
35462;SDS011;21578;47.892;9.970;2023-08-21T17:57:04;9.13;;;4.50;;
35462;SDS011;21578;47.892;9.970;2023-08-21T18:01:52;9.35;;;5.45;;
35462;SDS011;21578;47.892;9.970;2023-08-21T18:06:39;9.63;;;5.63;;
35462;SDS011;21578;47.892;9.970;2023-08-21T18:11:26;19.85;;;7.22;;
35462;SDS011;21578;47.892;9.970;2023-08-21T18:16:13;9.20;;;6.25;;
35462;SDS011;21578;47.892;9.970;2023-08-21T18:21:01;14.70;;;6.15;;
35462;SDS011;21578;47.892;9.970;2023-08-21T18:25:50;8.02;;;5.78;;
35462;SDS011;21578;47.892;9.970;2023-08-21T18:30:39;8.90;;;5.78;;
35462;SDS011;21578;47.892;9.970;2023-08-21T18:35:27;9.75;;;5.60;;
35462;SDS011;21578;47.892;9.970;2023-08-21T18:40:15;11.43;;;5.82;;
35462;SDS011;21578;47.892;9.970;2023-08-21T18:45:02;6.03;;;5.57;;
35462;SDS011;21578;47.892;9.970;2023-08-21T18:49:49;9.80;;;5.70;;
35462;SDS011;21578;47.892;9.970;2023-08-21T18:54:36;7.85;;;5.95;;
35462;SDS011;21578;47.892;9.970;2023-08-21T18:59:24;7.60;;;5.95;;
35462;SDS011;21578;47.892;9.970;2023-08-21T19:04:12;7.88;;;6.50;;
35462;SDS011;21578;47.892;9.970;2023-08-21T19:09:08;10.57;;;8.10;;
35462;SDS011;21578;47.892;9.970;2023-08-21T19:13:56;9.32;;;5.88;;
35462;SDS011;21578;47.892;9.970;2023-08-21T19:18:44;13.63;;;9.38;;
35462;SDS011;21578;47.892;9.970;2023-08-21T19:23:31;12.32;;;8.23;;
35462;SDS011;21578;47.892;9.970;2023-08-21T19:28:18;8.15;;;7.28;;
35462;SDS011;21578;47.892;9.970;2023-08-21T19:33:05;6.30;;;5.75;;
35462;SDS011;21578;47.892;9.970;2023-08-21T19:37:54;8.45;;;7.45;;
35462;SDS011;21578;47.892;9.970;2023-08-21T19:42:40;8.43;;;7.47;;
35462;SDS011;21578;47.892;9.970;2023-08-21T19:47:27;14.10;;;6.35;;
35462;SDS011;21578;47.892;9.970;2023-08-21T19:52:14;7.30;;;6.20;;
35462;SDS011;21578;47.892;9.970;2023-08-21T19:57:03;7.45;;;6.22;;
35462;SDS011;21578;47.892;9.970;2023-08-21T20:01:50;6.57;;;6.03;;
35462;SDS011;21578;47.892;9.970;2023-08-21T20:06:37;7.13;;;6.43;;
35462;SDS011;21578;47.892;9.970;2023-08-21T20:11:24;8.95;;;8.07;;
35462;SDS011;21578;47.892;9.970;2023-08-21T20:16:12;8.38;;;6.90;;
35462;SDS011;21578;47.892;9.970;2023-08-21T20:20:59;7.30;;;6.22;;
35462;SDS011;21578;47.892;9.970;2023-08-21T20:25:48;6.30;;;5.78;;
35462;SDS011;21578;47.892;9.970;2023-08-21T20:30:35;7.47;;;6.22;;
35462;SDS011;21578;47.892;9.970;2023-08-21T20:35:25;7.53;;;6.22;;
35462;SDS011;21578;47.892;9.970;2023-08-21T20:40:13;7.25;;;5.85;;
35462;SDS011;21578;47.892;9.970;2023-08-21T20:45:00;7.57;;;6.72;;
35462;SDS011;21578;47.892;9.970;2023-08-21T20:49:49;7.65;;;6.15;;
35462;SDS011;21578;47.892;9.970;2023-08-21T20:54:37;6.45;;;5.82;;
35462;SDS011;21578;47.892;9.970;2023-08-21T20:59:24;8.45;;;5.88;;
35462;SDS011;21578;47.892;9.970;2023-08-21T21:04:11;8.15;;;6.20;;
35462;SDS011;21578;47.892;9.970;2023-08-21T21:08:58;7.60;;;6.22;;
35462;SDS011;21578;47.892;9.970;2023-08-21T21:13:46;9.45;;;5.57;;
35462;SDS011;21578;47.892;9.970;2023-08-21T21:18:33;6.07;;;5.57;;
35462;SDS011;21578;47.892;9.970;2023-08-21T21:23:20;6.20;;;5.70;;
35462;SDS011;21578;47.892;9.970;2023-08-21T21:28:07;8.35;;;6.38;;
35462;SDS011;21578;47.892;9.970;2023-08-21T21:32:55;8.48;;;7.63;;
35462;SDS011;21578;47.892;9.970;2023-08-21T21:37:42;8.17;;;7.37;;
35462;SDS011;21578;47.892;9.970;2023-08-21T21:42:29;7.77;;;6.87;;
35462;SDS011;21578;47.892;9.970;2023-08-21T21:47:16;8.63;;;7.07;;
35462;SDS011;21578;47.892;9.970;2023-08-21T21:52:05;11.30;;;7.40;;
35462;SDS011;21578;47.892;9.970;2023-08-21T21:56:52;9.57;;;7.50;;
35462;SDS011;21578;47.892;9.970;2023-08-21T22:01:39;10.57;;;7.23;;
35462;SDS011;21578;47.892;9.970;2023-08-21T22:06:26;8.20;;;7.30;;
35462;SDS011;21578;47.892;9.970;2023-08-21T22:11:14;7.60;;;6.83;;
35462;SDS011;21578;47.892;9.970;2023-08-21T22:16:02;8.03;;;6.80;;
35462;SDS011;21578;47.892;9.970;2023-08-21T22:20:49;11.23;;;7.17;;
35462;SDS011;21578;47.892;9.970;2023-08-21T22:25:37;8.83;;;7.93;;
35462;SDS011;21578;47.892;9.970;2023-08-21T22:30:25;10.50;;;7.73;;
35462;SDS011;21578;47.892;9.970;2023-08-21T22:35:12;11.37;;;8.60;;
35462;SDS011;21578;47.892;9.970;2023-08-21T22:39:59;10.47;;;8.10;;
35462;SDS011;21578;47.892;9.970;2023-08-21T22:44:46;9.10;;;8.20;;
35462;SDS011;21578;47.892;9.970;2023-08-21T22:49:34;8.37;;;7.60;;
35462;SDS011;21578;47.892;9.970;2023-08-21T22:54:21;9.83;;;8.03;;
35462;SDS011;21578;47.892;9.970;2023-08-21T22:59:08;9.87;;;8.70;;
35462;SDS011;21578;47.892;9.970;2023-08-21T23:03:55;9.17;;;8.27;;
35462;SDS011;21578;47.892;9.970;2023-08-21T23:08:43;9.13;;;8.10;;
35462;SDS011;21578;47.892;9.970;2023-08-21T23:13:30;9.33;;;8.43;;
35462;SDS011;21578;47.892;9.970;2023-08-21T23:18:17;11.40;;;9.03;;
35462;SDS011;21578;47.892;9.970;2023-08-21T23:23:04;10.33;;;9.13;;
35462;SDS011;21578;47.892;9.970;2023-08-21T23:27:53;10.07;;;8.83;;
35462;SDS011;21578;47.892;9.970;2023-08-21T23:32:40;10.73;;;9.37;;
35462;SDS011;21578;47.892;9.970;2023-08-21T23:37:26;12.13;;;9.47;;
35462;SDS011;21578;47.892;9.970;2023-08-21T23:42:15;13.70;;;9.60;;
35462;SDS011;21578;47.892;9.970;2023-08-21T23:47:04;10.30;;;9.30;;
35462;SDS011;21578;47.892;9.970;2023-08-21T23:51:51;11.03;;;9.83;;
35462;SDS011;21578;47.892;9.970;2023-08-21T23:56:38;12.03;;;10.73;;
